sensor_id;sensor_type;location;lat;lon;timestamp;P1;durP1;ratioP1;P2;durP2;ratioP2
33148;SDS011;19506;51.040;3.856;2023-03-26T00:01:43;47.92;;;28.25;;
33148;SDS011;19506;51.040;3.856;2023-03-26T00:04:10;44.38;;;26.23;;
33148;SDS011;19506;51.040;3.856;2023-03-26T00:06:37;52.45;;;26.92;;
33148;SDS011;19506;51.040;3.856;2023-03-26T00:09:05;45.40;;;25.70;;
33148;SDS011;19506;51.040;3.856;2023-03-26T00:11:33;49.60;;;27.20;;
33148;SDS011;19506;51.040;3.856;2023-03-26T00:13:58;41.20;;;24.65;;
33148;SDS011;19506;51.040;3.856;2023-03-26T00:16:25;43.67;;;25.25;;
33148;SDS011;19506;51.040;3.856;2023-03-26T00:18:53;40.00;;;24.27;;
33148;SDS011;19506;51.040;3.856;2023-03-26T00:21:20;41.00;;;24.02;;
33148;SDS011;19506;51.040;3.856;2023-03-26T00:23:53;38.90;;;23.70;;
33148;SDS011;19506;51.040;3.856;2023-03-26T00:26:20;41.40;;;24.73;;
33148;SDS011;19506;51.040;3.856;2023-03-26T00:28:46;53.03;;;26.25;;
33148;SDS011;19506;51.040;3.856;2023-03-26T00:31:14;45.35;;;25.27;;
33148;SDS011;19506;51.040;3.856;2023-03-26T00:33:40;41.00;;;24.08;;
33148;SDS011;19506;51.040;3.856;2023-03-26T00:36:08;39.05;;;22.60;;
33148;SDS011;19506;51.040;3.856;2023-03-26T00:38:39;41.10;;;24.17;;
33148;SDS011;19506;51.040;3.856;2023-03-26T00:41:06;39.28;;;23.92;;
33148;SDS011;19506;51.040;3.856;2023-03-26T00:43:41;34.78;;;21.88;;
33148;SDS011;19506;51.040;3.856;2023-03-26T00:46:10;38.80;;;22.63;;
33148;SDS011;19506;51.040;3.856;2023-03-26T00:48:36;36.85;;;23.10;;
33148;SDS011;19506;51.040;3.856;2023-03-26T00:51:03;33.35;;;21.45;;
33148;SDS011;19506;51.040;3.856;2023-03-26T00:53:30;40.03;;;21.83;;
33148;SDS011;19506;51.040;3.856;2023-03-26T00:55:57;35.78;;;22.48;;
33148;SDS011;19506;51.040;3.856;2023-03-26T00:58:24;33.42;;;20.90;;
33148;SDS011;19506;51.040;3.856;2023-03-26T01:00:52;34.80;;;21.40;;
33148;SDS011;19506;51.040;3.856;2023-03-26T01:03:24;37.70;;;21.25;;
33148;SDS011;19506;51.040;3.856;2023-03-26T01:06:00;38.17;;;21.27;;
33148;SDS011;19506;51.040;3.856;2023-03-26T01:08:33;33.58;;;20.63;;
33148;SDS011;19506;51.040;3.856;2023-03-26T01:11:10;35.50;;;21.17;;
33148;SDS011;19506;51.040;3.856;2023-03-26T01:13:43;34.40;;;19.80;;
33148;SDS011;19506;51.040;3.856;2023-03-26T01:16:17;34.42;;;20.65;;
33148;SDS011;19506;51.040;3.856;2023-03-26T01:18:55;34.35;;;19.27;;
33148;SDS011;19506;51.040;3.856;2023-03-26T01:21:23;35.45;;;21.02;;
33148;SDS011;19506;51.040;3.856;2023-03-26T01:23:54;32.85;;;20.20;;
33148;SDS011;19506;51.040;3.856;2023-03-26T01:27:12;31.50;;;20.05;;
33148;SDS011;19506;51.040;3.856;2023-03-26T01:29:29;31.30;;;18.50;;
33148;SDS011;19506;51.040;3.856;2023-03-26T01:32:39;36.80;;;19.45;;
33148;SDS011;19506;51.040;3.856;2023-03-26T01:43:35;28.17;;;18.10;;
33148;SDS011;19506;51.040;3.856;2023-03-26T01:46:10;31.95;;;18.33;;
33148;SDS011;19506;51.040;3.856;2023-03-26T01:48:38;30.88;;;18.25;;
33148;SDS011;19506;51.040;3.856;2023-03-26T01:51:06;30.90;;;18.55;;
33148;SDS011;19506;51.040;3.856;2023-03-26T01:53:36;27.63;;;17.27;;
33148;SDS011;19506;51.040;3.856;2023-03-26T01:59:27;27.02;;;17.00;;
33148;SDS011;19506;51.040;3.856;2023-03-26T02:07:27;29.33;;;17.58;;
33148;SDS011;19506;51.040;3.856;2023-03-26T02:10:35;26.75;;;16.75;;
33148;SDS011;19506;51.040;3.856;2023-03-26T02:12:54;25.75;;;16.05;;
33148;SDS011;19506;51.040;3.856;2023-03-26T02:15:21;26.98;;;17.25;;
33148;SDS011;19506;51.040;3.856;2023-03-26T02:20:13;27.45;;;17.25;;
33148;SDS011;19506;51.040;3.856;2023-03-26T02:22:42;27.35;;;16.58;;
33148;SDS011;19506;51.040;3.856;2023-03-26T02:25:13;28.33;;;17.42;;
33148;SDS011;19506;51.040;3.856;2023-03-26T02:27:40;26.60;;;15.35;;
33148;SDS011;19506;51.040;3.856;2023-03-26T02:30:07;26.98;;;17.10;;
33148;SDS011;19506;51.040;3.856;2023-03-26T02:32:34;25.90;;;16.40;;
33148;SDS011;19506;51.040;3.856;2023-03-26T02:37:26;24.60;;;15.57;;
33148;SDS011;19506;51.040;3.856;2023-03-26T02:39:54;28.15;;;15.68;;
33148;SDS011;19506;51.040;3.856;2023-03-26T02:44:45;23.17;;;15.02;;
33148;SDS011;19506;51.040;3.856;2023-03-26T02:47:11;23.65;;;15.73;;
33148;SDS011;19506;51.040;3.856;2023-03-26T02:49:37;27.55;;;16.35;;
33148;SDS011;19506;51.040;3.856;2023-03-26T02:52:02;26.75;;;15.55;;
33148;SDS011;19506;51.040;3.856;2023-03-26T02:54:30;23.27;;;14.68;;
33148;SDS011;19506;51.040;3.856;2023-03-26T02:56:58;24.33;;;15.93;;
33148;SDS011;19506;51.040;3.856;2023-03-26T02:59:24;21.08;;;14.95;;
33148;SDS011;19506;51.040;3.856;2023-03-26T03:01:49;22.48;;;14.32;;
33148;SDS011;19506;51.040;3.856;2023-03-26T03:04:15;21.35;;;14.18;;
33148;SDS011;19506;51.040;3.856;2023-03-26T03:06:42;20.30;;;13.70;;
33148;SDS011;19506;51.040;3.856;2023-03-26T03:09:08;21.95;;;14.90;;
33148;SDS011;19506;51.040;3.856;2023-03-26T03:11:35;21.25;;;14.18;;
33148;SDS011;19506;51.040;3.856;2023-03-26T03:14:05;23.10;;;14.50;;
33148;SDS011;19506;51.040;3.856;2023-03-26T03:16:31;22.67;;;14.73;;
33148;SDS011;19506;51.040;3.856;2023-03-26T03:18:57;20.48;;;13.82;;
33148;SDS011;19506;51.040;3.856;2023-03-26T03:21:24;22.77;;;13.30;;
33148;SDS011;19506;51.040;3.856;2023-03-26T03:23:52;19.42;;;12.02;;
33148;SDS011;19506;51.040;3.856;2023-03-26T03:26:19;18.33;;;11.75;;
33148;SDS011;19506;51.040;3.856;2023-03-26T03:28:49;17.15;;;10.55;;
33148;SDS011;19506;51.040;3.856;2023-03-26T03:31:15;21.35;;;11.63;;
33148;SDS011;19506;51.040;3.856;2023-03-26T03:33:42;17.77;;;10.30;;
33148;SDS011;19506;51.040;3.856;2023-03-26T03:36:11;15.38;;;9.63;;
33148;SDS011;19506;51.040;3.856;2023-03-26T03:38:38;20.30;;;9.85;;
33148;SDS011;19506;51.040;3.856;2023-03-26T03:41:06;17.73;;;8.60;;
33148;SDS011;19506;51.040;3.856;2023-03-26T03:43:32;16.40;;;8.43;;
33148;SDS011;19506;51.040;3.856;2023-03-26T03:45:58;21.83;;;8.50;;
33148;SDS011;19506;51.040;3.856;2023-03-26T03:48:24;14.30;;;7.30;;
33148;SDS011;19506;51.040;3.856;2023-03-26T03:50:50;28.35;;;7.72;;
33148;SDS011;19506;51.040;3.856;2023-03-26T03:53:18;21.83;;;7.07;;
33148;SDS011;19506;51.040;3.856;2023-03-26T03:55:45;11.30;;;6.82;;
33148;SDS011;19506;51.040;3.856;2023-03-26T03:58:24;13.10;;;7.50;;
33148;SDS011;19506;51.040;3.856;2023-03-26T04:00:52;13.85;;;7.47;;
33148;SDS011;19506;51.040;3.856;2023-03-26T04:03:24;19.08;;;8.13;;
33148;SDS011;19506;51.040;3.856;2023-03-26T04:05:52;10.40;;;6.63;;
33148;SDS011;19506;51.040;3.856;2023-03-26T04:08:19;12.82;;;6.75;;
33148;SDS011;19506;51.040;3.856;2023-03-26T04:10:45;15.30;;;7.45;;
33148;SDS011;19506;51.040;3.856;2023-03-26T04:13:11;14.45;;;6.97;;
33148;SDS011;19506;51.040;3.856;2023-03-26T04:15:38;17.40;;;6.70;;
33148;SDS011;19506;51.040;3.856;2023-03-26T04:18:04;18.17;;;7.32;;
33148;SDS011;19506;51.040;3.856;2023-03-26T04:20:34;15.75;;;6.10;;
33148;SDS011;19506;51.040;3.856;2023-03-26T04:23:01;14.52;;;6.38;;
33148;SDS011;19506;51.040;3.856;2023-03-26T04:25:28;10.85;;;5.90;;
33148;SDS011;19506;51.040;3.856;2023-03-26T04:27:54;12.68;;;6.25;;
33148;SDS011;19506;51.040;3.856;2023-03-26T04:30:22;18.13;;;7.00;;
33148;SDS011;19506;51.040;3.856;2023-03-26T04:32:48;12.80;;;6.90;;
33148;SDS011;19506;51.040;3.856;2023-03-26T04:35:14;13.55;;;7.03;;
33148;SDS011;19506;51.040;3.856;2023-03-26T04:37:41;13.57;;;7.10;;
33148;SDS011;19506;51.040;3.856;2023-03-26T04:40:18;20.38;;;6.97;;
33148;SDS011;19506;51.040;3.856;2023-03-26T04:42:46;13.10;;;6.00;;
33148;SDS011;19506;51.040;3.856;2023-03-26T04:45:16;16.33;;;5.32;;
33148;SDS011;19506;51.040;3.856;2023-03-26T04:47:46;10.38;;;6.35;;
33148;SDS011;19506;51.040;3.856;2023-03-26T04:50:12;10.77;;;5.10;;
33148;SDS011;19506;51.040;3.856;2023-03-26T04:52:38;17.02;;;6.32;;
33148;SDS011;19506;51.040;3.856;2023-03-26T04:55:06;12.15;;;5.72;;
33148;SDS011;19506;51.040;3.856;2023-03-26T04:57:49;10.90;;;5.68;;
33148;SDS011;19506;51.040;3.856;2023-03-26T05:00:20;11.45;;;5.70;;
33148;SDS011;19506;51.040;3.856;2023-03-26T05:02:46;11.70;;;5.90;;
33148;SDS011;19506;51.040;3.856;2023-03-26T05:05:14;14.65;;;5.68;;
33148;SDS011;19506;51.040;3.856;2023-03-26T05:07:41;15.65;;;5.45;;
33148;SDS011;19506;51.040;3.856;2023-03-26T05:10:07;15.43;;;5.45;;
33148;SDS011;19506;51.040;3.856;2023-03-26T05:12:36;13.52;;;4.88;;
33148;SDS011;19506;51.040;3.856;2023-03-26T05:15:02;9.02;;;4.40;;
33148;SDS011;19506;51.040;3.856;2023-03-26T05:17:28;11.98;;;6.47;;
33148;SDS011;19506;51.040;3.856;2023-03-26T05:19:58;12.27;;;5.30;;
33148;SDS011;19506;51.040;3.856;2023-03-26T05:22:24;13.65;;;5.28;;
33148;SDS011;19506;51.040;3.856;2023-03-26T05:24:50;12.60;;;5.18;;
33148;SDS011;19506;51.040;3.856;2023-03-26T05:27:17;8.50;;;4.90;;
33148;SDS011;19506;51.040;3.856;2023-03-26T05:29:44;8.38;;;4.78;;
33148;SDS011;19506;51.040;3.856;2023-03-26T05:32:10;10.90;;;5.30;;
33148;SDS011;19506;51.040;3.856;2023-03-26T05:34:37;14.70;;;5.75;;
33148;SDS011;19506;51.040;3.856;2023-03-26T05:37:04;14.05;;;4.82;;
33148;SDS011;19506;51.040;3.856;2023-03-26T05:39:31;9.80;;;4.80;;
33148;SDS011;19506;51.040;3.856;2023-03-26T05:41:57;8.05;;;5.00;;
33148;SDS011;19506;51.040;3.856;2023-03-26T05:44:23;10.40;;;5.20;;
33148;SDS011;19506;51.040;3.856;2023-03-26T05:46:48;9.60;;;4.97;;
33148;SDS011;19506;51.040;3.856;2023-03-26T05:49:15;9.25;;;4.93;;
33148;SDS011;19506;51.040;3.856;2023-03-26T05:51:40;8.63;;;4.85;;
33148;SDS011;19506;51.040;3.856;2023-03-26T05:54:06;6.25;;;3.85;;
33148;SDS011;19506;51.040;3.856;2023-03-26T05:56:32;10.95;;;4.97;;
33148;SDS011;19506;51.040;3.856;2023-03-26T05:58:57;10.68;;;4.57;;
33148;SDS011;19506;51.040;3.856;2023-03-26T06:01:23;11.32;;;4.63;;
33148;SDS011;19506;51.040;3.856;2023-03-26T06:03:50;7.25;;;3.67;;
33148;SDS011;19506;51.040;3.856;2023-03-26T06:06:16;7.22;;;4.15;;
33148;SDS011;19506;51.040;3.856;2023-03-26T06:08:45;9.68;;;4.88;;
33148;SDS011;19506;51.040;3.856;2023-03-26T06:11:15;9.18;;;3.88;;
33148;SDS011;19506;51.040;3.856;2023-03-26T06:13:42;7.88;;;4.22;;
33148;SDS011;19506;51.040;3.856;2023-03-26T06:16:08;11.68;;;4.18;;
33148;SDS011;19506;51.040;3.856;2023-03-26T06:18:35;8.10;;;4.05;;
33148;SDS011;19506;51.040;3.856;2023-03-26T06:21:01;21.05;;;4.45;;
33148;SDS011;19506;51.040;3.856;2023-03-26T06:23:28;17.83;;;3.60;;
33148;SDS011;19506;51.040;3.856;2023-03-26T06:25:54;9.73;;;4.28;;
33148;SDS011;19506;51.040;3.856;2023-03-26T06:28:20;14.55;;;3.72;;
33148;SDS011;19506;51.040;3.856;2023-03-26T06:30:45;14.15;;;4.00;;
33148;SDS011;19506;51.040;3.856;2023-03-26T06:33:11;10.68;;;3.90;;
33148;SDS011;19506;51.040;3.856;2023-03-26T06:35:37;7.25;;;3.08;;
33148;SDS011;19506;51.040;3.856;2023-03-26T06:38:03;8.23;;;3.35;;
33148;SDS011;19506;51.040;3.856;2023-03-26T06:40:28;13.40;;;3.47;;
33148;SDS011;19506;51.040;3.856;2023-03-26T06:42:55;7.53;;;2.75;;
33148;SDS011;19506;51.040;3.856;2023-03-26T06:45:21;11.40;;;2.97;;
33148;SDS011;19506;51.040;3.856;2023-03-26T06:47:47;11.82;;;3.28;;
33148;SDS011;19506;51.040;3.856;2023-03-26T06:50:13;6.00;;;2.78;;
33148;SDS011;19506;51.040;3.856;2023-03-26T06:52:38;10.32;;;3.05;;
33148;SDS011;19506;51.040;3.856;2023-03-26T06:55:04;9.63;;;3.08;;
33148;SDS011;19506;51.040;3.856;2023-03-26T06:57:32;9.27;;;3.30;;
33148;SDS011;19506;51.040;3.856;2023-03-26T06:59:58;7.28;;;3.35;;
33148;SDS011;19506;51.040;3.856;2023-03-26T07:02:24;11.73;;;3.45;;
33148;SDS011;19506;51.040;3.856;2023-03-26T07:04:50;12.38;;;3.05;;
33148;SDS011;19506;51.040;3.856;2023-03-26T07:07:16;23.15;;;3.58;;
33148;SDS011;19506;51.040;3.856;2023-03-26T07:09:45;11.02;;;3.25;;
33148;SDS011;19506;51.040;3.856;2023-03-26T07:12:12;16.13;;;4.93;;
33148;SDS011;19506;51.040;3.856;2023-03-26T07:14:38;19.35;;;3.95;;
33148;SDS011;19506;51.040;3.856;2023-03-26T07:17:04;11.70;;;5.82;;
33148;SDS011;19506;51.040;3.856;2023-03-26T07:19:30;13.60;;;5.85;;
33148;SDS011;19506;51.040;3.856;2023-03-26T07:21:55;14.02;;;6.10;;
33148;SDS011;19506;51.040;3.856;2023-03-26T07:24:21;17.60;;;6.47;;
33148;SDS011;19506;51.040;3.856;2023-03-26T07:29:23;15.75;;;7.55;;
33148;SDS011;19506;51.040;3.856;2023-03-26T07:35:29;15.55;;;7.47;;
33148;SDS011;19506;51.040;3.856;2023-03-26T07:46:07;15.38;;;8.68;;
33148;SDS011;19506;51.040;3.856;2023-03-26T07:48:38;20.23;;;8.75;;
33148;SDS011;19506;51.040;3.856;2023-03-26T07:51:09;18.02;;;9.15;;
33148;SDS011;19506;51.040;3.856;2023-03-26T07:53:36;16.15;;;8.27;;
33148;SDS011;19506;51.040;3.856;2023-03-26T08:01:42;17.33;;;7.90;;
33148;SDS011;19506;51.040;3.856;2023-03-26T08:17:46;12.85;;;7.82;;
33148;SDS011;19506;51.040;3.856;2023-03-26T08:22:52;16.35;;;8.40;;
33148;SDS011;19506;51.040;3.856;2023-03-26T08:25:26;13.10;;;7.88;;
33148;SDS011;19506;51.040;3.856;2023-03-26T08:30:43;16.50;;;7.07;;
33148;SDS011;19506;51.040;3.856;2023-03-26T08:33:12;14.48;;;6.47;;
33148;SDS011;19506;51.040;3.856;2023-03-26T08:35:41;12.88;;;7.78;;
33148;SDS011;19506;51.040;3.856;2023-03-26T08:38:08;11.55;;;6.38;;
33148;SDS011;19506;51.040;3.856;2023-03-26T08:44:02;15.10;;;6.40;;
33148;SDS011;19506;51.040;3.856;2023-03-26T09:01:23;11.15;;;6.28;;
33148;SDS011;19506;51.040;3.856;2023-03-26T09:04:01;10.33;;;5.57;;
33148;SDS011;19506;51.040;3.856;2023-03-26T09:07:27;13.75;;;7.07;;
33148;SDS011;19506;51.040;3.856;2023-03-26T09:10:01;9.77;;;5.78;;
33148;SDS011;19506;51.040;3.856;2023-03-26T09:32:18;9.55;;;5.13;;
33148;SDS011;19506;51.040;3.856;2023-03-26T09:35:11;7.47;;;5.22;;
33148;SDS011;19506;51.040;3.856;2023-03-26T09:37:59;8.65;;;4.80;;
33148;SDS011;19506;51.040;3.856;2023-03-26T09:55:44;8.07;;;5.28;;
33148;SDS011;19506;51.040;3.856;2023-03-26T10:01:29;8.68;;;4.70;;
33148;SDS011;19506;51.040;3.856;2023-03-26T10:13:03;11.73;;;5.55;;
33148;SDS011;19506;51.040;3.856;2023-03-26T10:15:50;7.80;;;4.13;;
33148;SDS011;19506;51.040;3.856;2023-03-26T10:18:46;8.55;;;4.63;;
33148;SDS011;19506;51.040;3.856;2023-03-26T10:21:39;7.55;;;4.90;;
33148;SDS011;19506;51.040;3.856;2023-03-26T10:24:34;6.18;;;4.03;;
33148;SDS011;19506;51.040;3.856;2023-03-26T10:27:32;6.30;;;4.45;;
33148;SDS011;19506;51.040;3.856;2023-03-26T10:30:35;10.32;;;5.55;;
33148;SDS011;19506;51.040;3.856;2023-03-26T10:47:44;6.07;;;4.38;;
33148;SDS011;19506;51.040;3.856;2023-03-26T10:52:05;7.32;;;4.25;;
33148;SDS011;19506;51.040;3.856;2023-03-26T10:54:52;5.50;;;3.60;;
33148;SDS011;19506;51.040;3.856;2023-03-26T10:57:41;6.53;;;4.07;;
33148;SDS011;19506;51.040;3.856;2023-03-26T11:00:23;7.03;;;4.28;;
33148;SDS011;19506;51.040;3.856;2023-03-26T11:08:23;7.93;;;4.65;;
33148;SDS011;19506;51.040;3.856;2023-03-26T11:19:49;6.13;;;4.20;;
33148;SDS011;19506;51.040;3.856;2023-03-26T11:24:59;5.88;;;3.85;;
33148;SDS011;19506;51.040;3.856;2023-03-26T11:33:19;6.28;;;3.88;;
33148;SDS011;19506;51.040;3.856;2023-03-26T11:35:51;6.45;;;4.03;;
33148;SDS011;19506;51.040;3.856;2023-03-26T11:38:25;5.20;;;3.53;;
33148;SDS011;19506;51.040;3.856;2023-03-26T11:40:57;6.32;;;4.30;;
33148;SDS011;19506;51.040;3.856;2023-03-26T11:43:31;5.95;;;3.90;;
33148;SDS011;19506;51.040;3.856;2023-03-26T11:46:00;6.45;;;3.92;;
33148;SDS011;19506;51.040;3.856;2023-03-26T11:48:47;6.28;;;3.47;;
33148;SDS011;19506;51.040;3.856;2023-03-26T11:51:28;5.38;;;3.58;;
33148;SDS011;19506;51.040;3.856;2023-03-26T11:54:03;6.15;;;3.35;;
33148;SDS011;19506;51.040;3.856;2023-03-26T11:56:45;5.35;;;3.20;;
33148;SDS011;19506;51.040;3.856;2023-03-26T11:59:14;8.48;;;3.53;;
33148;SDS011;19506;51.040;3.856;2023-03-26T12:01:50;3.97;;;3.25;;
33148;SDS011;19506;51.040;3.856;2023-03-26T12:04:27;12.73;;;4.72;;
33148;SDS011;19506;51.040;3.856;2023-03-26T12:10:44;3.85;;;3.22;;
33148;SDS011;19506;51.040;3.856;2023-03-26T12:12:51;4.63;;;3.38;;
33148;SDS011;19506;51.040;3.856;2023-03-26T12:15:20;4.72;;;3.45;;
33148;SDS011;19506;51.040;3.856;2023-03-26T12:17:47;6.85;;;3.55;;
33148;SDS011;19506;51.040;3.856;2023-03-26T12:20:25;7.10;;;3.45;;
33148;SDS011;19506;51.040;3.856;2023-03-26T12:23:05;6.38;;;2.83;;
33148;SDS011;19506;51.040;3.856;2023-03-26T12:25:35;4.55;;;3.20;;
33148;SDS011;19506;51.040;3.856;2023-03-26T12:30:33;4.65;;;2.85;;
33148;SDS011;19506;51.040;3.856;2023-03-26T12:33:05;5.90;;;2.50;;
33148;SDS011;19506;51.040;3.856;2023-03-26T12:35:38;4.43;;;2.63;;
33148;SDS011;19506;51.040;3.856;2023-03-26T12:38:13;5.07;;;2.42;;
33148;SDS011;19506;51.040;3.856;2023-03-26T12:40:46;5.88;;;2.42;;
33148;SDS011;19506;51.040;3.856;2023-03-26T12:43:20;7.47;;;2.40;;
33148;SDS011;19506;51.040;3.856;2023-03-26T12:45:54;8.82;;;2.83;;
33148;SDS011;19506;51.040;3.856;2023-03-26T12:48:23;3.28;;;2.15;;
33148;SDS011;19506;51.040;3.856;2023-03-26T12:56:19;5.60;;;2.35;;
33148;SDS011;19506;51.040;3.856;2023-03-26T13:04:06;8.23;;;2.92;;
33148;SDS011;19506;51.040;3.856;2023-03-26T13:14:55;9.48;;;3.55;;
33148;SDS011;19506;51.040;3.856;2023-03-26T13:20:33;10.13;;;3.30;;
33148;SDS011;19506;51.040;3.856;2023-03-26T13:28:41;8.82;;;3.60;;
33148;SDS011;19506;51.040;3.856;2023-03-26T13:31:21;10.95;;;4.40;;
33148;SDS011;19506;51.040;3.856;2023-03-26T13:47:09;12.02;;;5.13;;
33148;SDS011;19506;51.040;3.856;2023-03-26T13:49:42;11.00;;;4.57;;
33148;SDS011;19506;51.040;3.856;2023-03-26T14:01:06;24.63;;;5.50;;
33148;SDS011;19506;51.040;3.856;2023-03-26T14:03:48;20.13;;;5.65;;
33148;SDS011;19506;51.040;3.856;2023-03-26T14:09:49;19.75;;;5.38;;
33148;SDS011;19506;51.040;3.856;2023-03-26T14:15:03;30.33;;;6.97;;
33148;SDS011;19506;51.040;3.856;2023-03-26T14:18:23;23.05;;;5.72;;
33148;SDS011;19506;51.040;3.856;2023-03-26T14:38:55;14.23;;;5.10;;
33148;SDS011;19506;51.040;3.856;2023-03-26T14:41:53;21.92;;;5.05;;
33148;SDS011;19506;51.040;3.856;2023-03-26T14:44:40;22.58;;;5.15;;
33148;SDS011;19506;51.040;3.856;2023-03-26T14:47:29;19.25;;;5.15;;
33148;SDS011;19506;51.040;3.856;2023-03-26T14:55:09;19.55;;;5.55;;
33148;SDS011;19506;51.040;3.856;2023-03-26T14:58:08;15.43;;;5.55;;
33148;SDS011;19506;51.040;3.856;2023-03-26T15:01:15;15.18;;;4.10;;
33148;SDS011;19506;51.040;3.856;2023-03-26T15:06:54;16.10;;;4.53;;
33148;SDS011;19506;51.040;3.856;2023-03-26T15:12:36;21.38;;;5.53;;
33148;SDS011;19506;51.040;3.856;2023-03-26T15:32:47;15.57;;;5.50;;
33148;SDS011;19506;51.040;3.856;2023-03-26T15:52:26;14.32;;;4.00;;
33148;SDS011;19506;51.040;3.856;2023-03-26T15:57:45;10.95;;;4.10;;
33148;SDS011;19506;51.040;3.856;2023-03-26T16:00:26;17.40;;;4.65;;
33148;SDS011;19506;51.040;3.856;2023-03-26T16:03:10;18.92;;;4.50;;
33148;SDS011;19506;51.040;3.856;2023-03-26T16:11:11;14.85;;;4.10;;
33148;SDS011;19506;51.040;3.856;2023-03-26T16:16:24;14.30;;;4.50;;
33148;SDS011;19506;51.040;3.856;2023-03-26T16:19:32;15.50;;;3.80;;
33148;SDS011;19506;51.040;3.856;2023-03-26T16:22:08;14.15;;;4.40;;
33148;SDS011;19506;51.040;3.856;2023-03-26T16:24:39;9.32;;;4.15;;
33148;SDS011;19506;51.040;3.856;2023-03-26T16:32:24;15.05;;;4.35;;
33148;SDS011;19506;51.040;3.856;2023-03-26T16:45:30;13.07;;;5.00;;
33148;SDS011;19506;51.040;3.856;2023-03-26T16:48:19;21.90;;;6.57;;
33148;SDS011;19506;51.040;3.856;2023-03-26T16:54:26;20.35;;;6.75;;
33148;SDS011;19506;51.040;3.856;2023-03-26T17:08:17;43.83;;;16.02;;
33148;SDS011;19506;51.040;3.856;2023-03-26T17:16:21;52.53;;;18.40;;
33148;SDS011;19506;51.040;3.856;2023-03-26T17:18:59;58.22;;;19.30;;
33148;SDS011;19506;51.040;3.856;2023-03-26T17:21:55;52.33;;;18.60;;
33148;SDS011;19506;51.040;3.856;2023-03-26T17:35:37;49.08;;;16.90;;
33148;SDS011;19506;51.040;3.856;2023-03-26T17:38:08;41.17;;;16.33;;
33148;SDS011;19506;51.040;3.856;2023-03-26T17:40:53;42.28;;;15.98;;
33148;SDS011;19506;51.040;3.856;2023-03-26T17:46:17;42.67;;;15.77;;
33148;SDS011;19506;51.040;3.856;2023-03-26T17:59:48;58.95;;;23.35;;
33148;SDS011;19506;51.040;3.856;2023-03-26T18:02:18;60.80;;;24.38;;
33148;SDS011;19506;51.040;3.856;2023-03-26T18:04:46;47.20;;;21.75;;
33148;SDS011;19506;51.040;3.856;2023-03-26T18:18:37;61.63;;;20.75;;
33148;SDS011;19506;51.040;3.856;2023-03-26T18:21:19;57.03;;;23.48;;
33148;SDS011;19506;51.040;3.856;2023-03-26T18:23:51;49.10;;;21.08;;
33148;SDS011;19506;51.040;3.856;2023-03-26T18:26:21;50.30;;;22.85;;
33148;SDS011;19506;51.040;3.856;2023-03-26T18:31:52;50.88;;;20.83;;
33148;SDS011;19506;51.040;3.856;2023-03-26T18:34:21;48.75;;;21.48;;
33148;SDS011;19506;51.040;3.856;2023-03-26T18:36:59;51.55;;;22.75;;
33148;SDS011;19506;51.040;3.856;2023-03-26T18:39:28;51.05;;;20.75;;
33148;SDS011;19506;51.040;3.856;2023-03-26T18:41:54;51.78;;;22.27;;
33148;SDS011;19506;51.040;3.856;2023-03-26T18:44:20;45.08;;;22.80;;
33148;SDS011;19506;51.040;3.856;2023-03-26T18:46:46;50.65;;;23.75;;
33148;SDS011;19506;51.040;3.856;2023-03-26T18:49:12;62.13;;;27.73;;
33148;SDS011;19506;51.040;3.856;2023-03-26T18:51:40;67.10;;;30.08;;
33148;SDS011;19506;51.040;3.856;2023-03-26T18:54:08;66.05;;;32.58;;
33148;SDS011;19506;51.040;3.856;2023-03-26T18:56:41;72.57;;;35.00;;
33148;SDS011;19506;51.040;3.856;2023-03-26T18:59:27;82.95;;;36.63;;
33148;SDS011;19506;51.040;3.856;2023-03-26T19:02:00;86.75;;;37.83;;
33148;SDS011;19506;51.040;3.856;2023-03-26T19:04:29;76.97;;;37.40;;
33148;SDS011;19506;51.040;3.856;2023-03-26T19:06:57;84.25;;;38.55;;
33148;SDS011;19506;51.040;3.856;2023-03-26T19:09:24;86.22;;;40.65;;
33148;SDS011;19506;51.040;3.856;2023-03-26T19:11:55;76.75;;;39.53;;
33148;SDS011;19506;51.040;3.856;2023-03-26T19:14:22;86.90;;;40.97;;
33148;SDS011;19506;51.040;3.856;2023-03-26T19:16:59;82.28;;;40.78;;
33148;SDS011;19506;51.040;3.856;2023-03-26T19:19:31;84.93;;;41.08;;
33148;SDS011;19506;51.040;3.856;2023-03-26T19:22:00;86.70;;;40.83;;
33148;SDS011;19506;51.040;3.856;2023-03-26T19:24:28;87.38;;;41.72;;
33148;SDS011;19506;51.040;3.856;2023-03-26T19:26:55;80.40;;;41.65;;
33148;SDS011;19506;51.040;3.856;2023-03-26T19:29:26;80.05;;;38.67;;
33148;SDS011;19506;51.040;3.856;2023-03-26T19:32:02;84.45;;;41.70;;
33148;SDS011;19506;51.040;3.856;2023-03-26T19:34:45;76.82;;;41.38;;
33148;SDS011;19506;51.040;3.856;2023-03-26T19:39:50;75.15;;;39.53;;
33148;SDS011;19506;51.040;3.856;2023-03-26T19:42:26;71.38;;;38.90;;
33148;SDS011;19506;51.040;3.856;2023-03-26T19:44:56;77.57;;;38.85;;
33148;SDS011;19506;51.040;3.856;2023-03-26T19:47:31;79.38;;;37.17;;
33148;SDS011;19506;51.040;3.856;2023-03-26T19:50:39;78.22;;;39.70;;
33148;SDS011;19506;51.040;3.856;2023-03-26T19:56:43;73.57;;;37.67;;
33148;SDS011;19506;51.040;3.856;2023-03-26T19:58:39;78.80;;;38.95;;
33148;SDS011;19506;51.040;3.856;2023-03-26T20:01:08;72.70;;;36.97;;
33148;SDS011;19506;51.040;3.856;2023-03-26T20:03:41;67.90;;;37.42;;
33148;SDS011;19506;51.040;3.856;2023-03-26T20:06:14;70.88;;;39.00;;
33148;SDS011;19506;51.040;3.856;2023-03-26T20:08:42;65.18;;;35.80;;
33148;SDS011;19506;51.040;3.856;2023-03-26T20:11:12;64.75;;;32.10;;
33148;SDS011;19506;51.040;3.856;2023-03-26T20:13:40;61.13;;;32.00;;
33148;SDS011;19506;51.040;3.856;2023-03-26T20:18:34;64.20;;;32.22;;
33148;SDS011;19506;51.040;3.856;2023-03-26T20:21:01;57.85;;;30.65;;
33148;SDS011;19506;51.040;3.856;2023-03-26T20:23:32;60.70;;;31.98;;
33148;SDS011;19506;51.040;3.856;2023-03-26T20:25:58;70.20;;;31.38;;
33148;SDS011;19506;51.040;3.856;2023-03-26T20:28:24;57.42;;;26.75;;
33148;SDS011;19506;51.040;3.856;2023-03-26T20:30:50;55.97;;;26.40;;
33148;SDS011;19506;51.040;3.856;2023-03-26T20:33:19;45.72;;;22.63;;
33148;SDS011;19506;51.040;3.856;2023-03-26T20:35:49;51.28;;;24.45;;
33148;SDS011;19506;51.040;3.856;2023-03-26T20:38:16;47.00;;;24.00;;
33148;SDS011;19506;51.040;3.856;2023-03-26T20:40:41;52.40;;;24.33;;
33148;SDS011;19506;51.040;3.856;2023-03-26T20:43:12;46.65;;;21.05;;
33148;SDS011;19506;51.040;3.856;2023-03-26T20:45:42;46.10;;;22.08;;
33148;SDS011;19506;51.040;3.856;2023-03-26T20:48:09;37.25;;;19.35;;
33148;SDS011;19506;51.040;3.856;2023-03-26T20:50:36;35.00;;;17.27;;
33148;SDS011;19506;51.040;3.856;2023-03-26T20:53:05;32.63;;;16.13;;
33148;SDS011;19506;51.040;3.856;2023-03-26T20:55:34;40.13;;;15.52;;
33148;SDS011;19506;51.040;3.856;2023-03-26T21:02:53;30.05;;;14.02;;
33148;SDS011;19506;51.040;3.856;2023-03-26T21:05:21;33.40;;;14.70;;
33148;SDS011;19506;51.040;3.856;2023-03-26T21:07:50;31.88;;;13.57;;
33148;SDS011;19506;51.040;3.856;2023-03-26T21:10:20;26.00;;;13.75;;
33148;SDS011;19506;51.040;3.856;2023-03-26T21:12:48;35.85;;;13.88;;
33148;SDS011;19506;51.040;3.856;2023-03-26T21:15:30;25.38;;;12.43;;
33148;SDS011;19506;51.040;3.856;2023-03-26T21:17:56;22.42;;;11.77;;
33148;SDS011;19506;51.040;3.856;2023-03-26T21:20:22;28.52;;;12.73;;
33148;SDS011;19506;51.040;3.856;2023-03-26T21:25:38;31.38;;;11.70;;
33148;SDS011;19506;51.040;3.856;2023-03-26T21:28:11;27.15;;;10.85;;
33148;SDS011;19506;51.040;3.856;2023-03-26T21:30:46;24.10;;;10.38;;
33148;SDS011;19506;51.040;3.856;2023-03-26T21:35:38;24.70;;;11.48;;